Terminal Aerodrome Forecast
Issued by NWS

Home | Current Version | Previous Version | Text Only | Print | Product List | Glossary On
Versions: 1 2 3 4 5 6 7 8 9 10 11 12 13 14 15 16 17 18
000
FTUS43 KGRR 212340
TAFJXN
TAF
KJXN 212340Z 2200/2224 17010KT P6SM FEW007
     FM220300 21003KT 3SM BR OVC006
     FM220500 20004KT 1/2SM FG OVC015
     FM220700 VRB03KT 1/4SM FG VV001
     FM221500 02004KT 2SM BR OVC015=

USA.gov is the U.S. government's official web portal to all federal, state and local government web resources and services.